sensor_id;sensor_type;location;lat;lon;timestamp;P1;durP1;ratioP1;P2;durP2;ratioP2
39898;SDS011;25571;47.876;10.642;2023-02-05T00:02:12;5.38;;;4.80;;
39898;SDS011;25571;47.876;10.642;2023-02-05T00:04:37;7.20;;;4.70;;
39898;SDS011;25571;47.876;10.642;2023-02-05T00:07:03;5.63;;;4.75;;
39898;SDS011;25571;47.876;10.642;2023-02-05T00:09:30;5.88;;;4.82;;
39898;SDS011;25571;47.876;10.642;2023-02-05T00:11:56;5.07;;;4.43;;
39898;SDS011;25571;47.876;10.642;2023-02-05T00:14:22;7.75;;;5.40;;
39898;SDS011;25571;47.876;10.642;2023-02-05T00:16:49;6.78;;;4.93;;
39898;SDS011;25571;47.876;10.642;2023-02-05T00:19:15;7.47;;;5.25;;
39898;SDS011;25571;47.876;10.642;2023-02-05T00:21:41;8.02;;;5.10;;
39898;SDS011;25571;47.876;10.642;2023-02-05T00:24:08;6.85;;;5.57;;
39898;SDS011;25571;47.876;10.642;2023-02-05T00:26:34;6.57;;;5.60;;
39898;SDS011;25571;47.876;10.642;2023-02-05T00:28:59;5.57;;;5.07;;
39898;SDS011;25571;47.876;10.642;2023-02-05T00:31:25;6.70;;;4.90;;
39898;SDS011;25571;47.876;10.642;2023-02-05T00:33:51;8.98;;;5.45;;
39898;SDS011;25571;47.876;10.642;2023-02-05T00:36:17;5.80;;;4.75;;
39898;SDS011;25571;47.876;10.642;2023-02-05T00:38:44;5.93;;;5.32;;
39898;SDS011;25571;47.876;10.642;2023-02-05T00:41:11;7.50;;;5.65;;
39898;SDS011;25571;47.876;10.642;2023-02-05T00:43:37;10.20;;;5.50;;
39898;SDS011;25571;47.876;10.642;2023-02-05T00:46:03;7.28;;;5.07;;
39898;SDS011;25571;47.876;10.642;2023-02-05T00:48:29;7.72;;;5.60;;
39898;SDS011;25571;47.876;10.642;2023-02-05T00:50:55;8.10;;;6.28;;
39898;SDS011;25571;47.876;10.642;2023-02-05T00:53:21;7.35;;;5.60;;
39898;SDS011;25571;47.876;10.642;2023-02-05T00:55:48;8.32;;;6.13;;
39898;SDS011;25571;47.876;10.642;2023-02-05T00:58:14;10.60;;;6.13;;
39898;SDS011;25571;47.876;10.642;2023-02-05T01:00:39;9.23;;;7.20;;
39898;SDS011;25571;47.876;10.642;2023-02-05T01:03:06;9.30;;;7.63;;
39898;SDS011;25571;47.876;10.642;2023-02-05T01:05:32;11.55;;;7.95;;
39898;SDS011;25571;47.876;10.642;2023-02-05T01:07:59;8.63;;;7.05;;
39898;SDS011;25571;47.876;10.642;2023-02-05T01:10:24;11.50;;;8.05;;
39898;SDS011;25571;47.876;10.642;2023-02-05T01:12:50;8.90;;;6.93;;
39898;SDS011;25571;47.876;10.642;2023-02-05T01:15:15;9.07;;;7.55;;
39898;SDS011;25571;47.876;10.642;2023-02-05T01:17:42;8.75;;;7.40;;
39898;SDS011;25571;47.876;10.642;2023-02-05T01:20:08;9.45;;;7.40;;
39898;SDS011;25571;47.876;10.642;2023-02-05T01:22:35;8.80;;;7.70;;
39898;SDS011;25571;47.876;10.642;2023-02-05T01:25:00;11.20;;;8.25;;
39898;SDS011;25571;47.876;10.642;2023-02-05T01:27:26;12.45;;;8.75;;
39898;SDS011;25571;47.876;10.642;2023-02-05T01:29:52;12.05;;;8.35;;
39898;SDS011;25571;47.876;10.642;2023-02-05T01:32:17;11.70;;;8.75;;
39898;SDS011;25571;47.876;10.642;2023-02-05T01:34:43;10.90;;;9.13;;
39898;SDS011;25571;47.876;10.642;2023-02-05T01:37:09;13.23;;;9.45;;
39898;SDS011;25571;47.876;10.642;2023-02-05T01:39:35;12.07;;;8.75;;
39898;SDS011;25571;47.876;10.642;2023-02-05T01:42:02;10.63;;;8.68;;
39898;SDS011;25571;47.876;10.642;2023-02-05T01:44:30;11.48;;;9.40;;
39898;SDS011;25571;47.876;10.642;2023-02-05T01:46:56;12.15;;;9.68;;
39898;SDS011;25571;47.876;10.642;2023-02-05T01:49:23;13.48;;;9.32;;
39898;SDS011;25571;47.876;10.642;2023-02-05T01:51:54;13.60;;;10.00;;
39898;SDS011;25571;47.876;10.642;2023-02-05T01:54:24;13.32;;;9.45;;
39898;SDS011;25571;47.876;10.642;2023-02-05T01:56:53;12.07;;;10.05;;
39898;SDS011;25571;47.876;10.642;2023-02-05T01:59:27;13.88;;;10.82;;
39898;SDS011;25571;47.876;10.642;2023-02-05T02:01:57;14.85;;;11.25;;
39898;SDS011;25571;47.876;10.642;2023-02-05T02:04:40;12.82;;;10.77;;
39898;SDS011;25571;47.876;10.642;2023-02-05T02:07:15;14.13;;;10.95;;
39898;SDS011;25571;47.876;10.642;2023-02-05T02:09:43;14.95;;;11.50;;
39898;SDS011;25571;47.876;10.642;2023-02-05T02:12:11;13.98;;;10.82;;
39898;SDS011;25571;47.876;10.642;2023-02-05T02:14:40;16.63;;;11.32;;
39898;SDS011;25571;47.876;10.642;2023-02-05T02:17:07;13.07;;;10.35;;
39898;SDS011;25571;47.876;10.642;2023-02-05T02:22:28;15.27;;;10.88;;
39898;SDS011;25571;47.876;10.642;2023-02-05T02:25:44;15.90;;;11.35;;
39898;SDS011;25571;47.876;10.642;2023-02-05T02:27:56;14.90;;;10.85;;
39898;SDS011;25571;47.876;10.642;2023-02-05T02:30:30;15.02;;;11.25;;
39898;SDS011;25571;47.876;10.642;2023-02-05T02:33:08;15.63;;;10.48;;
39898;SDS011;25571;47.876;10.642;2023-02-05T02:35:53;14.68;;;10.75;;
39898;SDS011;25571;47.876;10.642;2023-02-05T02:38:31;16.30;;;10.73;;
39898;SDS011;25571;47.876;10.642;2023-02-05T02:41:06;15.60;;;10.65;;
39898;SDS011;25571;47.876;10.642;2023-02-05T02:46:20;15.98;;;11.70;;
39898;SDS011;25571;47.876;10.642;2023-02-05T02:48:52;15.50;;;11.32;;
39898;SDS011;25571;47.876;10.642;2023-02-05T02:51:20;15.65;;;10.93;;
39898;SDS011;25571;47.876;10.642;2023-02-05T02:53:49;14.52;;;10.98;;
39898;SDS011;25571;47.876;10.642;2023-02-05T02:56:18;12.85;;;9.73;;
39898;SDS011;25571;47.876;10.642;2023-02-05T02:58:49;12.15;;;9.73;;
39898;SDS011;25571;47.876;10.642;2023-02-05T03:01:27;12.82;;;10.10;;
39898;SDS011;25571;47.876;10.642;2023-02-05T03:03:59;11.48;;;9.43;;
39898;SDS011;25571;47.876;10.642;2023-02-05T03:06:31;12.38;;;9.20;;
39898;SDS011;25571;47.876;10.642;2023-02-05T03:09:19;11.52;;;8.60;;
39898;SDS011;25571;47.876;10.642;2023-02-05T03:11:50;10.57;;;8.82;;
39898;SDS011;25571;47.876;10.642;2023-02-05T03:14:15;10.73;;;8.63;;
39898;SDS011;25571;47.876;10.642;2023-02-05T03:16:41;9.65;;;8.45;;
39898;SDS011;25571;47.876;10.642;2023-02-05T03:19:07;10.05;;;7.95;;
39898;SDS011;25571;47.876;10.642;2023-02-05T03:21:35;9.60;;;7.82;;
39898;SDS011;25571;47.876;10.642;2023-02-05T03:24:07;11.32;;;8.02;;
39898;SDS011;25571;47.876;10.642;2023-02-05T03:26:33;10.23;;;7.90;;
39898;SDS011;25571;47.876;10.642;2023-02-05T03:29:01;9.70;;;8.45;;
39898;SDS011;25571;47.876;10.642;2023-02-05T03:31:34;9.93;;;7.93;;
39898;SDS011;25571;47.876;10.642;2023-02-05T03:40:32;9.60;;;7.30;;
39898;SDS011;25571;47.876;10.642;2023-02-05T03:43:16;9.32;;;7.30;;
39898;SDS011;25571;47.876;10.642;2023-02-05T03:45:58;8.02;;;7.00;;
39898;SDS011;25571;47.876;10.642;2023-02-05T03:54:04;10.02;;;7.38;;
39898;SDS011;25571;47.876;10.642;2023-02-05T03:59:03;9.77;;;8.23;;
39898;SDS011;25571;47.876;10.642;2023-02-05T04:01:30;9.18;;;7.20;;
39898;SDS011;25571;47.876;10.642;2023-02-05T04:03:57;8.05;;;7.07;;
39898;SDS011;25571;47.876;10.642;2023-02-05T04:06:23;8.30;;;6.65;;
39898;SDS011;25571;47.876;10.642;2023-02-05T04:08:48;9.70;;;7.22;;
39898;SDS011;25571;47.876;10.642;2023-02-05T04:11:14;8.13;;;6.93;;
39898;SDS011;25571;47.876;10.642;2023-02-05T04:13:39;9.20;;;6.93;;
39898;SDS011;25571;47.876;10.642;2023-02-05T04:16:05;8.73;;;7.03;;
39898;SDS011;25571;47.876;10.642;2023-02-05T04:18:31;7.95;;;6.05;;
39898;SDS011;25571;47.876;10.642;2023-02-05T04:20:56;10.23;;;7.18;;
39898;SDS011;25571;47.876;10.642;2023-02-05T04:23:23;9.45;;;7.15;;
39898;SDS011;25571;47.876;10.642;2023-02-05T04:25:53;7.93;;;6.78;;
39898;SDS011;25571;47.876;10.642;2023-02-05T04:28:19;8.70;;;6.68;;
39898;SDS011;25571;47.876;10.642;2023-02-05T04:30:45;10.30;;;7.20;;
39898;SDS011;25571;47.876;10.642;2023-02-05T04:33:11;9.48;;;7.05;;
39898;SDS011;25571;47.876;10.642;2023-02-05T04:35:36;8.52;;;6.75;;
39898;SDS011;25571;47.876;10.642;2023-02-05T04:38:02;8.18;;;6.82;;
39898;SDS011;25571;47.876;10.642;2023-02-05T04:40:27;9.43;;;7.10;;
39898;SDS011;25571;47.876;10.642;2023-02-05T04:42:53;7.78;;;6.82;;
39898;SDS011;25571;47.876;10.642;2023-02-05T04:45:19;8.77;;;6.88;;
39898;SDS011;25571;47.876;10.642;2023-02-05T04:47:44;8.95;;;7.20;;
39898;SDS011;25571;47.876;10.642;2023-02-05T04:50:10;8.25;;;7.03;;
39898;SDS011;25571;47.876;10.642;2023-02-05T04:52:36;7.47;;;6.65;;
39898;SDS011;25571;47.876;10.642;2023-02-05T04:55:01;8.63;;;7.10;;
39898;SDS011;25571;47.876;10.642;2023-02-05T04:57:28;8.82;;;7.25;;
39898;SDS011;25571;47.876;10.642;2023-02-05T04:59:55;8.35;;;7.00;;
39898;SDS011;25571;47.876;10.642;2023-02-05T05:02:20;8.40;;;6.65;;
39898;SDS011;25571;47.876;10.642;2023-02-05T05:04:47;8.35;;;6.78;;
39898;SDS011;25571;47.876;10.642;2023-02-05T05:07:12;7.65;;;6.70;;
39898;SDS011;25571;47.876;10.642;2023-02-05T05:09:38;8.48;;;6.93;;
39898;SDS011;25571;47.876;10.642;2023-02-05T05:12:04;9.95;;;7.43;;
39898;SDS011;25571;47.876;10.642;2023-02-05T05:14:29;8.82;;;6.60;;
39898;SDS011;25571;47.876;10.642;2023-02-05T05:16:55;7.63;;;6.75;;
39898;SDS011;25571;47.876;10.642;2023-02-05T05:19:22;7.35;;;6.55;;
39898;SDS011;25571;47.876;10.642;2023-02-05T05:21:47;8.82;;;6.45;;
39898;SDS011;25571;47.876;10.642;2023-02-05T05:24:13;7.20;;;6.10;;
39898;SDS011;25571;47.876;10.642;2023-02-05T05:26:39;7.82;;;6.88;;
39898;SDS011;25571;47.876;10.642;2023-02-05T05:31:34;6.80;;;6.10;;
39898;SDS011;25571;47.876;10.642;2023-02-05T05:34:00;8.38;;;6.68;;
39898;SDS011;25571;47.876;10.642;2023-02-05T05:36:25;7.40;;;6.35;;
39898;SDS011;25571;47.876;10.642;2023-02-05T05:38:51;7.18;;;6.15;;
39898;SDS011;25571;47.876;10.642;2023-02-05T05:41:18;7.55;;;6.45;;
39898;SDS011;25571;47.876;10.642;2023-02-05T05:44:04;7.90;;;6.18;;
39898;SDS011;25571;47.876;10.642;2023-02-05T05:46:30;7.75;;;6.43;;
39898;SDS011;25571;47.876;10.642;2023-02-05T05:48:57;6.80;;;6.10;;
39898;SDS011;25571;47.876;10.642;2023-02-05T05:51:25;7.82;;;6.88;;
39898;SDS011;25571;47.876;10.642;2023-02-05T05:53:52;7.63;;;6.47;;
39898;SDS011;25571;47.876;10.642;2023-02-05T05:56:19;6.55;;;5.85;;
39898;SDS011;25571;47.876;10.642;2023-02-05T05:58:45;6.82;;;6.13;;
39898;SDS011;25571;47.876;10.642;2023-02-05T06:01:11;8.63;;;6.63;;
39898;SDS011;25571;47.876;10.642;2023-02-05T06:03:38;7.05;;;5.90;;
39898;SDS011;25571;47.876;10.642;2023-02-05T06:06:05;5.85;;;4.95;;
39898;SDS011;25571;47.876;10.642;2023-02-05T06:08:32;6.80;;;6.10;;
39898;SDS011;25571;47.876;10.642;2023-02-05T06:10:58;5.95;;;5.32;;
39898;SDS011;25571;47.876;10.642;2023-02-05T06:13:24;7.32;;;6.30;;
39898;SDS011;25571;47.876;10.642;2023-02-05T06:15:50;6.40;;;5.63;;
39898;SDS011;25571;47.876;10.642;2023-02-05T06:18:16;6.82;;;6.10;;
39898;SDS011;25571;47.876;10.642;2023-02-05T06:20:42;6.43;;;5.72;;
39898;SDS011;25571;47.876;10.642;2023-02-05T06:23:08;7.03;;;6.25;;
39898;SDS011;25571;47.876;10.642;2023-02-05T06:25:33;7.18;;;5.95;;
39898;SDS011;25571;47.876;10.642;2023-02-05T06:27:59;6.30;;;5.63;;
39898;SDS011;25571;47.876;10.642;2023-02-05T06:30:25;7.78;;;6.57;;
39898;SDS011;25571;47.876;10.642;2023-02-05T06:32:51;7.65;;;6.13;;
39898;SDS011;25571;47.876;10.642;2023-02-05T06:35:17;7.18;;;6.05;;
39898;SDS011;25571;47.876;10.642;2023-02-05T06:37:43;7.70;;;6.30;;
39898;SDS011;25571;47.876;10.642;2023-02-05T06:40:09;6.68;;;5.97;;
39898;SDS011;25571;47.876;10.642;2023-02-05T06:42:35;7.22;;;6.25;;
39898;SDS011;25571;47.876;10.642;2023-02-05T06:45:01;6.65;;;6.00;;
39898;SDS011;25571;47.876;10.642;2023-02-05T06:47:27;6.65;;;5.85;;
39898;SDS011;25571;47.876;10.642;2023-02-05T06:49:52;7.72;;;6.50;;
39898;SDS011;25571;47.876;10.642;2023-02-05T06:52:18;6.38;;;5.30;;
39898;SDS011;25571;47.876;10.642;2023-02-05T06:54:44;7.53;;;6.20;;
39898;SDS011;25571;47.876;10.642;2023-02-05T06:57:09;6.90;;;5.90;;
39898;SDS011;25571;47.876;10.642;2023-02-05T06:59:35;7.43;;;6.72;;
39898;SDS011;25571;47.876;10.642;2023-02-05T07:02:02;6.40;;;5.60;;
39898;SDS011;25571;47.876;10.642;2023-02-05T07:04:28;6.72;;;5.90;;
39898;SDS011;25571;47.876;10.642;2023-02-05T07:06:55;7.55;;;5.90;;
39898;SDS011;25571;47.876;10.642;2023-02-05T07:09:21;5.82;;;5.22;;
39898;SDS011;25571;47.876;10.642;2023-02-05T07:11:48;5.80;;;5.22;;
39898;SDS011;25571;47.876;10.642;2023-02-05T07:14:13;5.63;;;5.00;;
39898;SDS011;25571;47.876;10.642;2023-02-05T07:16:39;5.85;;;5.25;;
39898;SDS011;25571;47.876;10.642;2023-02-05T07:19:05;5.75;;;5.13;;
39898;SDS011;25571;47.876;10.642;2023-02-05T07:21:31;6.22;;;5.60;;
39898;SDS011;25571;47.876;10.642;2023-02-05T07:23:56;6.55;;;5.55;;
39898;SDS011;25571;47.876;10.642;2023-02-05T07:26:22;6.68;;;5.95;;
39898;SDS011;25571;47.876;10.642;2023-02-05T07:28:48;7.32;;;6.32;;
39898;SDS011;25571;47.876;10.642;2023-02-05T07:31:15;7.32;;;6.22;;
39898;SDS011;25571;47.876;10.642;2023-02-05T07:33:45;6.55;;;5.95;;
39898;SDS011;25571;47.876;10.642;2023-02-05T07:36:12;8.25;;;6.18;;
39898;SDS011;25571;47.876;10.642;2023-02-05T07:38:43;7.25;;;5.85;;
39898;SDS011;25571;47.876;10.642;2023-02-05T07:41:10;9.25;;;6.85;;
39898;SDS011;25571;47.876;10.642;2023-02-05T07:43:37;7.35;;;5.97;;
39898;SDS011;25571;47.876;10.642;2023-02-05T07:46:04;7.18;;;6.47;;
39898;SDS011;25571;47.876;10.642;2023-02-05T07:48:31;8.53;;;7.10;;
39898;SDS011;25571;47.876;10.642;2023-02-05T07:50:58;9.95;;;7.78;;
39898;SDS011;25571;47.876;10.642;2023-02-05T07:53:24;10.50;;;8.02;;
39898;SDS011;25571;47.876;10.642;2023-02-05T07:55:50;11.35;;;8.10;;
39898;SDS011;25571;47.876;10.642;2023-02-05T07:58:15;8.40;;;6.70;;
39898;SDS011;25571;47.876;10.642;2023-02-05T08:00:41;8.88;;;6.40;;
39898;SDS011;25571;47.876;10.642;2023-02-05T08:03:07;7.35;;;6.53;;
39898;SDS011;25571;47.876;10.642;2023-02-05T08:05:33;7.75;;;6.00;;
39898;SDS011;25571;47.876;10.642;2023-02-05T08:08:00;6.47;;;5.40;;
39898;SDS011;25571;47.876;10.642;2023-02-05T08:10:25;7.88;;;6.05;;
39898;SDS011;25571;47.876;10.642;2023-02-05T08:12:51;6.63;;;5.68;;
39898;SDS011;25571;47.876;10.642;2023-02-05T08:15:17;7.47;;;5.38;;
39898;SDS011;25571;47.876;10.642;2023-02-05T08:17:42;5.35;;;4.82;;
39898;SDS011;25571;47.876;10.642;2023-02-05T08:20:09;7.75;;;5.45;;
39898;SDS011;25571;47.876;10.642;2023-02-05T08:22:36;6.43;;;5.10;;
39898;SDS011;25571;47.876;10.642;2023-02-05T08:25:04;7.68;;;5.57;;
39898;SDS011;25571;47.876;10.642;2023-02-05T08:27:31;6.47;;;5.50;;
39898;SDS011;25571;47.876;10.642;2023-02-05T08:29:58;8.23;;;6.45;;
39898;SDS011;25571;47.876;10.642;2023-02-05T08:32:23;9.57;;;6.93;;
39898;SDS011;25571;47.876;10.642;2023-02-05T08:34:49;6.47;;;5.78;;
39898;SDS011;25571;47.876;10.642;2023-02-05T08:37:15;8.20;;;6.03;;
39898;SDS011;25571;47.876;10.642;2023-02-05T08:39:40;12.65;;;9.00;;
39898;SDS011;25571;47.876;10.642;2023-02-05T08:42:06;10.30;;;7.70;;
39898;SDS011;25571;47.876;10.642;2023-02-05T08:44:32;8.57;;;6.88;;
39898;SDS011;25571;47.876;10.642;2023-02-05T08:46:57;7.35;;;5.88;;
39898;SDS011;25571;47.876;10.642;2023-02-05T08:49:23;8.85;;;6.07;;
39898;SDS011;25571;47.876;10.642;2023-02-05T08:51:49;8.20;;;5.88;;
39898;SDS011;25571;47.876;10.642;2023-02-05T08:54:16;7.50;;;5.72;;
39898;SDS011;25571;47.876;10.642;2023-02-05T08:56:42;6.63;;;5.60;;
39898;SDS011;25571;47.876;10.642;2023-02-05T08:59:09;8.27;;;5.78;;
39898;SDS011;25571;47.876;10.642;2023-02-05T09:01:35;7.38;;;6.00;;
39898;SDS011;25571;47.876;10.642;2023-02-05T09:04:04;8.50;;;5.57;;
39898;SDS011;25571;47.876;10.642;2023-02-05T09:06:41;7.07;;;5.72;;
39898;SDS011;25571;47.876;10.642;2023-02-05T09:09:06;8.25;;;5.28;;
39898;SDS011;25571;47.876;10.642;2023-02-05T09:11:32;10.40;;;5.18;;
39898;SDS011;25571;47.876;10.642;2023-02-05T09:13:57;8.05;;;5.50;;
39898;SDS011;25571;47.876;10.642;2023-02-05T09:16:23;10.40;;;7.45;;
39898;SDS011;25571;47.876;10.642;2023-02-05T09:18:51;13.18;;;8.00;;
39898;SDS011;25571;47.876;10.642;2023-02-05T09:21:18;10.18;;;7.20;;
39898;SDS011;25571;47.876;10.642;2023-02-05T09:23:44;9.00;;;6.25;;
39898;SDS011;25571;47.876;10.642;2023-02-05T09:26:10;10.48;;;6.10;;
39898;SDS011;25571;47.876;10.642;2023-02-05T09:28:35;7.60;;;5.05;;
39898;SDS011;25571;47.876;10.642;2023-02-05T09:31:08;7.78;;;5.40;;
39898;SDS011;25571;47.876;10.642;2023-02-05T09:33:39;6.85;;;5.28;;
39898;SDS011;25571;47.876;10.642;2023-02-05T09:36:08;7.88;;;5.13;;
39898;SDS011;25571;47.876;10.642;2023-02-05T09:38:36;8.32;;;6.13;;
39898;SDS011;25571;47.876;10.642;2023-02-05T09:41:37;8.45;;;5.25;;
39898;SDS011;25571;47.876;10.642;2023-02-05T09:46:52;8.35;;;5.60;;
39898;SDS011;25571;47.876;10.642;2023-02-05T09:49:29;7.50;;;5.35;;
39898;SDS011;25571;47.876;10.642;2023-02-05T09:52:11;6.38;;;5.45;;
39898;SDS011;25571;47.876;10.642;2023-02-05T09:54:55;9.55;;;5.47;;
39898;SDS011;25571;47.876;10.642;2023-02-05T09:57:32;10.32;;;5.78;;
39898;SDS011;25571;47.876;10.642;2023-02-05T10:00:05;8.07;;;5.32;;
39898;SDS011;25571;47.876;10.642;2023-02-05T10:02:46;9.60;;;5.28;;
39898;SDS011;25571;47.876;10.642;2023-02-05T10:05:19;9.30;;;5.45;;
39898;SDS011;25571;47.876;10.642;2023-02-05T10:10:35;8.13;;;5.53;;
39898;SDS011;25571;47.876;10.642;2023-02-05T10:13:14;8.93;;;5.65;;
39898;SDS011;25571;47.876;10.642;2023-02-05T10:19:09;9.00;;;5.43;;
39898;SDS011;25571;47.876;10.642;2023-02-05T10:24:30;10.98;;;5.32;;
39898;SDS011;25571;47.876;10.642;2023-02-05T10:27:27;9.07;;;4.90;;
39898;SDS011;25571;47.876;10.642;2023-02-05T10:30:19;8.20;;;5.47;;
39898;SDS011;25571;47.876;10.642;2023-02-05T10:36:04;6.32;;;4.68;;
39898;SDS011;25571;47.876;10.642;2023-02-05T10:38:32;10.05;;;5.32;;
39898;SDS011;25571;47.876;10.642;2023-02-05T10:41:05;10.48;;;5.20;;
39898;SDS011;25571;47.876;10.642;2023-02-05T10:43:56;11.10;;;5.85;;
39898;SDS011;25571;47.876;10.642;2023-02-05T10:46:37;10.35;;;4.50;;
39898;SDS011;25571;47.876;10.642;2023-02-05T10:51:41;8.07;;;3.90;;
39898;SDS011;25571;47.876;10.642;2023-02-05T10:54:28;9.27;;;4.03;;
39898;SDS011;25571;47.876;10.642;2023-02-05T10:56:55;7.07;;;3.50;;
39898;SDS011;25571;47.876;10.642;2023-02-05T10:59:23;8.32;;;3.08;;
39898;SDS011;25571;47.876;10.642;2023-02-05T11:01:52;8.07;;;2.58;;
39898;SDS011;25571;47.876;10.642;2023-02-05T11:07:11;7.55;;;2.85;;
39898;SDS011;25571;47.876;10.642;2023-02-05T11:12:53;6.85;;;2.53;;
39898;SDS011;25571;47.876;10.642;2023-02-05T11:15:28;7.13;;;2.58;;
39898;SDS011;25571;47.876;10.642;2023-02-05T11:17:57;7.28;;;2.38;;
39898;SDS011;25571;47.876;10.642;2023-02-05T11:20:29;7.65;;;2.40;;
39898;SDS011;25571;47.876;10.642;2023-02-05T11:25:56;5.25;;;1.83;;
39898;SDS011;25571;47.876;10.642;2023-02-05T11:30:56;6.05;;;2.35;;
39898;SDS011;25571;47.876;10.642;2023-02-05T11:33:41;7.05;;;2.40;;
39898;SDS011;25571;47.876;10.642;2023-02-05T11:36:11;7.80;;;3.17;;
39898;SDS011;25571;47.876;10.642;2023-02-05T11:41:28;4.45;;;2.03;;
39898;SDS011;25571;47.876;10.642;2023-02-05T11:43:59;7.00;;;2.28;;
39898;SDS011;25571;47.876;10.642;2023-02-05T11:46:27;7.93;;;2.97;;
39898;SDS011;25571;47.876;10.642;2023-02-05T11:48:58;6.60;;;2.78;;
39898;SDS011;25571;47.876;10.642;2023-02-05T11:54:04;6.68;;;2.40;;
39898;SDS011;25571;47.876;10.642;2023-02-05T11:59:32;5.07;;;2.30;;
39898;SDS011;25571;47.876;10.642;2023-02-05T12:05:41;11.90;;;3.25;;
39898;SDS011;25571;47.876;10.642;2023-02-05T12:07:48;8.98;;;2.60;;
39898;SDS011;25571;47.876;10.642;2023-02-05T12:10:19;10.90;;;2.88;;
39898;SDS011;25571;47.876;10.642;2023-02-05T12:15:27;8.50;;;2.40;;
39898;SDS011;25571;47.876;10.642;2023-02-05T12:20:50;8.00;;;3.00;;
39898;SDS011;25571;47.876;10.642;2023-02-05T12:23:29;7.55;;;2.92;;
39898;SDS011;25571;47.876;10.642;2023-02-05T12:26:15;9.70;;;2.83;;
39898;SDS011;25571;47.876;10.642;2023-02-05T12:32:05;8.60;;;2.53;;
39898;SDS011;25571;47.876;10.642;2023-02-05T12:34:52;8.55;;;2.85;;
39898;SDS011;25571;47.876;10.642;2023-02-05T12:37:36;7.30;;;3.15;;
39898;SDS011;25571;47.876;10.642;2023-02-05T12:40:48;4.90;;;2.22;;
39898;SDS011;25571;47.876;10.642;2023-02-05T12:43:00;5.10;;;2.80;;
39898;SDS011;25571;47.876;10.642;2023-02-05T12:51:14;5.57;;;2.95;;
39898;SDS011;25571;47.876;10.642;2023-02-05T12:54:25;4.10;;;2.38;;
39898;SDS011;25571;47.876;10.642;2023-02-05T13:07:50;6.90;;;2.97;;
39898;SDS011;25571;47.876;10.642;2023-02-05T13:10:27;6.97;;;2.97;;
39898;SDS011;25571;47.876;10.642;2023-02-05T13:13:10;8.68;;;2.97;;
39898;SDS011;25571;47.876;10.642;2023-02-05T13:15:43;8.15;;;3.33;;
39898;SDS011;25571;47.876;10.642;2023-02-05T13:18:18;10.60;;;3.40;;
39898;SDS011;25571;47.876;10.642;2023-02-05T13:21:05;6.50;;;3.08;;
39898;SDS011;25571;47.876;10.642;2023-02-05T13:23:56;7.23;;;3.20;;
39898;SDS011;25571;47.876;10.642;2023-02-05T13:27:04;6.25;;;2.80;;
39898;SDS011;25571;47.876;10.642;2023-02-05T13:30:02;6.82;;;3.33;;
39898;SDS011;25571;47.876;10.642;2023-02-05T13:32:29;7.75;;;3.17;;
39898;SDS011;25571;47.876;10.642;2023-02-05T13:34:58;7.15;;;3.17;;
39898;SDS011;25571;47.876;10.642;2023-02-05T13:40:16;7.25;;;3.53;;
39898;SDS011;25571;47.876;10.642;2023-02-05T13:43:03;7.47;;;3.67;;
39898;SDS011;25571;47.876;10.642;2023-02-05T13:45:55;7.30;;;2.78;;
39898;SDS011;25571;47.876;10.642;2023-02-05T13:48:27;11.20;;;3.42;;
39898;SDS011;25571;47.876;10.642;2023-02-05T13:51:25;9.13;;;3.38;;
39898;SDS011;25571;47.876;10.642;2023-02-05T13:57:00;8.15;;;3.30;;
39898;SDS011;25571;47.876;10.642;2023-02-05T14:05:04;7.78;;;3.33;;
39898;SDS011;25571;47.876;10.642;2023-02-05T14:07:32;7.35;;;3.25;;
39898;SDS011;25571;47.876;10.642;2023-02-05T14:10:02;4.65;;;2.85;;
39898;SDS011;25571;47.876;10.642;2023-02-05T14:12:29;8.43;;;3.72;;
39898;SDS011;25571;47.876;10.642;2023-02-05T14:20:51;10.45;;;3.60;;
39898;SDS011;25571;47.876;10.642;2023-02-05T14:23:00;10.50;;;3.70;;
39898;SDS011;25571;47.876;10.642;2023-02-05T14:30:44;6.97;;;3.77;;
39898;SDS011;25571;47.876;10.642;2023-02-05T14:38:42;7.50;;;3.38;;
39898;SDS011;25571;47.876;10.642;2023-02-05T14:41:14;8.85;;;3.33;;
39898;SDS011;25571;47.876;10.642;2023-02-05T14:43:44;8.07;;;3.55;;
39898;SDS011;25571;47.876;10.642;2023-02-05T14:46:35;9.90;;;3.50;;
39898;SDS011;25571;47.876;10.642;2023-02-05T14:49:18;8.32;;;3.17;;
39898;SDS011;25571;47.876;10.642;2023-02-05T14:54:53;9.23;;;3.53;;
39898;SDS011;25571;47.876;10.642;2023-02-05T15:00:19;10.52;;;3.83;;
39898;SDS011;25571;47.876;10.642;2023-02-05T15:03:12;7.80;;;3.38;;
39898;SDS011;25571;47.876;10.642;2023-02-05T15:05:53;8.25;;;3.63;;
39898;SDS011;25571;47.876;10.642;2023-02-05T15:13:34;7.50;;;3.80;;
39898;SDS011;25571;47.876;10.642;2023-02-05T15:18:45;9.73;;;4.15;;
39898;SDS011;25571;47.876;10.642;2023-02-05T15:21:28;7.35;;;4.40;;
39898;SDS011;25571;47.876;10.642;2023-02-05T15:24:17;10.23;;;4.38;;
39898;SDS011;25571;47.876;10.642;2023-02-05T15:26:51;29.75;;;15.80;;
39898;SDS011;25571;47.876;10.642;2023-02-05T15:31:49;22.63;;;12.02;;
39898;SDS011;25571;47.876;10.642;2023-02-05T15:37:14;13.82;;;8.40;;
39898;SDS011;25571;47.876;10.642;2023-02-05T15:39:54;14.52;;;7.50;;
39898;SDS011;25571;47.876;10.642;2023-02-05T15:42:42;12.57;;;7.10;;
39898;SDS011;25571;47.876;10.642;2023-02-05T15:45:42;18.02;;;8.55;;
39898;SDS011;25571;47.876;10.642;2023-02-05T15:48:05;14.68;;;9.68;;
39898;SDS011;25571;47.876;10.642;2023-02-05T15:50:53;17.83;;;11.23;;
39898;SDS011;25571;47.876;10.642;2023-02-05T15:53:39;22.10;;;11.32;;
39898;SDS011;25571;47.876;10.642;2023-02-05T15:56:28;16.27;;;9.70;;
39898;SDS011;25571;47.876;10.642;2023-02-05T16:04:17;11.48;;;6.07;;
39898;SDS011;25571;47.876;10.642;2023-02-05T16:06:46;11.48;;;5.85;;
39898;SDS011;25571;47.876;10.642;2023-02-05T16:09:19;11.40;;;6.13;;
39898;SDS011;25571;47.876;10.642;2023-02-05T16:11:47;7.75;;;5.50;;
39898;SDS011;25571;47.876;10.642;2023-02-05T16:14:14;9.85;;;4.63;;
39898;SDS011;25571;47.876;10.642;2023-02-05T16:19:28;10.65;;;6.57;;
39898;SDS011;25571;47.876;10.642;2023-02-05T16:24:50;16.08;;;8.77;;
39898;SDS011;25571;47.876;10.642;2023-02-05T16:27:31;11.52;;;6.22;;
39898;SDS011;25571;47.876;10.642;2023-02-05T16:30:06;12.65;;;6.07;;
39898;SDS011;25571;47.876;10.642;2023-02-05T16:32:41;8.68;;;4.82;;
39898;SDS011;25571;47.876;10.642;2023-02-05T16:35:07;8.32;;;4.85;;
39898;SDS011;25571;47.876;10.642;2023-02-05T16:37:48;6.88;;;5.28;;
39898;SDS011;25571;47.876;10.642;2023-02-05T16:40:15;9.38;;;6.10;;
39898;SDS011;25571;47.876;10.642;2023-02-05T16:42:59;9.68;;;6.32;;
39898;SDS011;25571;47.876;10.642;2023-02-05T16:48:30;11.55;;;8.18;;
39898;SDS011;25571;47.876;10.642;2023-02-05T16:50:57;7.95;;;6.47;;
39898;SDS011;25571;47.876;10.642;2023-02-05T16:53:25;8.68;;;6.97;;
39898;SDS011;25571;47.876;10.642;2023-02-05T16:56:18;10.77;;;6.97;;
39898;SDS011;25571;47.876;10.642;2023-02-05T16:58:50;7.68;;;5.63;;
39898;SDS011;25571;47.876;10.642;2023-02-05T17:01:38;8.60;;;4.65;;
39898;SDS011;25571;47.876;10.642;2023-02-05T17:04:07;4.43;;;3.70;;
39898;SDS011;25571;47.876;10.642;2023-02-05T17:06:42;6.32;;;4.95;;
39898;SDS011;25571;47.876;10.642;2023-02-05T17:09:07;6.95;;;5.00;;
39898;SDS011;25571;47.876;10.642;2023-02-05T17:11:54;6.88;;;4.82;;
39898;SDS011;25571;47.876;10.642;2023-02-05T17:14:56;6.32;;;4.50;;
39898;SDS011;25571;47.876;10.642;2023-02-05T17:17:23;6.72;;;4.13;;
39898;SDS011;25571;47.876;10.642;2023-02-05T17:20:04;8.68;;;4.70;;
39898;SDS011;25571;47.876;10.642;2023-02-05T17:25:31;10.07;;;5.60;;